createdAt,value
2023-03-02T00:02:23.805Z,23.01
2023-03-02T00:04:53.894Z,23.01
2023-03-02T00:07:24.106Z,22.97
2023-03-02T00:09:53.521Z,22.95
2023-03-02T00:12:20.665Z,22.94
2023-03-02T00:14:47.676Z,22.95
2023-03-02T00:17:14.544Z,22.93
2023-03-02T00:19:41.978Z,22.92
2023-03-02T00:22:10.222Z,22.91
2023-03-02T00:24:37.881Z,22.88
2023-03-02T00:27:06.081Z,22.89
2023-03-02T00:29:32.906Z,22.88
2023-03-02T00:32:00.063Z,22.86
2023-03-02T00:34:26.915Z,22.85
2023-03-02T00:36:53.774Z,22.85
2023-03-02T00:39:20.603Z,22.84
2023-03-02T00:41:48.331Z,22.83
2023-03-02T00:44:19.620Z,22.83
2023-03-02T00:46:46.641Z,22.81
2023-03-02T00:49:13.912Z,22.77
2023-03-02T00:51:40.787Z,22.76
2023-03-02T00:54:07.592Z,22.75
2023-03-02T00:56:34.829Z,22.75
2023-03-02T00:59:11.183Z,22.75
2023-03-02T01:01:39.784Z,22.75
2023-03-02T01:04:06.715Z,22.73
2023-03-02T01:06:33.952Z,22.73
2023-03-02T01:09:02.903Z,22.73
2023-03-02T01:11:29.761Z,22.72
2023-03-02T01:13:56.626Z,22.72
2023-03-02T01:16:23.532Z,22.72
2023-03-02T01:18:51.785Z,22.70
2023-03-02T01:21:18.678Z,22.70
2023-03-02T01:23:45.548Z,22.70
2023-03-02T01:26:12.405Z,22.70
2023-03-02T01:28:39.322Z,22.69
2023-03-02T01:31:06.241Z,22.68
2023-03-02T01:33:33.250Z,22.69
2023-03-02T01:36:01.476Z,22.67
2023-03-02T01:38:28.896Z,22.67
2023-03-02T01:40:55.720Z,22.65
2023-03-02T01:43:22.617Z,22.65
2023-03-02T01:45:53.549Z,22.64
2023-03-02T01:48:48.028Z,22.62
2023-03-02T01:51:23.809Z,22.61
2023-03-02T01:53:55.206Z,22.60
2023-03-02T01:56:26.269Z,22.59
2023-03-02T01:58:56.441Z,22.59
2023-03-02T02:01:23.487Z,22.59
2023-03-02T02:03:51.043Z,22.58
2023-03-02T02:06:24.314Z,22.58
2023-03-02T02:08:54.490Z,22.57
2023-03-02T02:11:21.562Z,22.56
2023-03-02T02:13:54.060Z,22.55
2023-03-02T02:16:21.181Z,22.54
2023-03-02T02:18:48.016Z,22.54
2023-03-02T02:21:15.626Z,22.53
2023-03-02T02:23:52.286Z,22.55
2023-03-02T02:26:26.460Z,22.53
2023-03-02T02:28:59.465Z,22.52
2023-03-02T02:31:34.799Z,22.50
2023-03-02T02:34:07.317Z,22.50
2023-03-02T02:36:38.784Z,22.49
2023-03-02T02:39:19.083Z,22.49
2023-03-02T02:41:49.348Z,22.48
2023-03-02T02:44:18.265Z,22.47
2023-03-02T02:46:45.955Z,22.46
2023-03-02T02:49:25.258Z,22.46
2023-03-02T02:51:52.380Z,22.46
2023-03-02T02:54:21.712Z,22.44
2023-03-02T02:56:51.930Z,22.44
2023-03-02T02:59:23.171Z,22.43
2023-03-02T03:01:51.277Z,22.43
2023-03-02T03:04:21.245Z,22.43
2023-03-02T03:06:53.691Z,22.43
2023-03-02T03:09:21.997Z,22.42
2023-03-02T03:11:53.053Z,22.41
2023-03-02T03:14:22.264Z,22.41
2023-03-02T03:16:51.930Z,22.41
2023-03-02T03:19:22.530Z,22.40
2023-03-02T03:21:52.266Z,22.40
2023-03-02T03:24:20.451Z,22.40
2023-03-02T03:26:48.070Z,22.38
2023-03-02T03:29:18.777Z,22.38
2023-03-02T03:31:47.578Z,22.37
2023-03-02T03:34:14.431Z,22.36
2023-03-02T03:36:43.314Z,22.37
2023-03-02T03:39:11.777Z,22.36
2023-03-02T03:41:39.934Z,22.36
2023-03-02T03:44:08.126Z,22.35
2023-03-02T03:46:38.861Z,22.34
2023-03-02T03:49:06.336Z,22.34
2023-03-02T03:51:35.396Z,22.34
2023-03-02T03:54:08.148Z,22.34
2023-03-02T03:56:41.647Z,22.32
2023-03-02T03:59:12.710Z,22.30
2023-03-02T04:01:59.799Z,22.30
2023-03-02T04:04:33.508Z,22.29
2023-03-02T04:07:03.190Z,22.30
2023-03-02T04:09:32.299Z,22.28
2023-03-02T04:11:59.941Z,22.29
2023-03-02T04:14:27.543Z,22.29
2023-03-02T04:16:57.081Z,22.29
2023-03-02T04:19:25.440Z,22.29
2023-03-02T04:21:55.692Z,22.29
2023-03-02T04:24:23.873Z,22.27
2023-03-02T04:26:53.127Z,22.28
2023-03-02T04:29:20.923Z,22.27
2023-03-02T04:31:48.530Z,22.27
2023-03-02T04:34:18.053Z,22.25
2023-03-02T04:36:45.980Z,22.25
2023-03-02T04:39:17.749Z,22.25
2023-03-02T04:41:49.094Z,22.23
2023-03-02T04:44:16.907Z,22.22
2023-03-02T04:46:45.079Z,22.23
2023-03-02T04:49:12.908Z,22.21
2023-03-02T04:51:43.511Z,22.22
2023-03-02T04:54:15.822Z,22.21
2023-03-02T04:56:42.721Z,22.20
2023-03-02T04:59:09.517Z,22.20
2023-03-02T05:01:36.363Z,22.20
2023-03-02T05:04:04.120Z,22.19
2023-03-02T05:06:31.241Z,22.20
2023-03-02T05:09:00.222Z,22.20
2023-03-02T05:11:27.325Z,22.20
2023-03-02T05:13:55.767Z,22.19
2023-03-02T05:16:23.633Z,22.16
2023-03-02T05:18:50.519Z,22.17
2023-03-02T05:21:18.332Z,22.17
2023-03-02T05:23:45.212Z,22.17
2023-03-02T05:26:14.160Z,22.17
2023-03-02T05:28:41.620Z,22.16
2023-03-02T05:31:08.795Z,22.15
2023-03-02T05:33:35.654Z,22.14
2023-03-02T05:36:02.706Z,22.15
2023-03-02T05:38:31.638Z,22.18
2023-03-02T05:40:58.530Z,22.24
2023-03-02T05:43:26.777Z,22.28
2023-03-02T05:45:55.323Z,22.31
2023-03-02T05:48:22.089Z,22.36
2023-03-02T05:50:48.939Z,22.42
2023-03-02T05:53:15.748Z,22.49
2023-03-02T05:55:42.583Z,22.58
2023-03-02T05:58:14.445Z,22.66
2023-03-02T06:00:43.155Z,22.75
2023-03-02T06:03:10.290Z,22.84
2023-03-02T06:05:37.701Z,22.94
2023-03-02T06:08:05.427Z,23.05
2023-03-02T06:10:32.354Z,23.15
2023-03-02T06:12:59.306Z,23.26
2023-03-02T06:15:29.648Z,23.35
2023-03-02T06:17:58.086Z,23.47
2023-03-02T06:20:25.018Z,23.57
2023-03-02T06:22:51.949Z,23.67
2023-03-02T06:25:21.362Z,23.74
2023-03-02T06:27:51.682Z,23.85
2023-03-02T06:30:21.228Z,23.93
2023-03-02T06:32:48.101Z,23.99
2023-03-02T06:35:16.692Z,24.05
2023-03-02T06:37:44.559Z,24.09
2023-03-02T06:40:13.725Z,24.11
2023-03-02T06:42:42.123Z,24.13
2023-03-02T06:45:10.716Z,24.13
2023-03-02T06:47:38.055Z,24.14
2023-03-02T06:50:06.265Z,24.12
2023-03-02T06:52:35.395Z,24.10
2023-03-02T06:55:02.321Z,24.08
2023-03-02T06:57:33.961Z,24.04
2023-03-02T07:00:01.922Z,24.02
2023-03-02T07:02:28.783Z,24.01
2023-03-02T07:04:55.637Z,23.99
2023-03-02T07:07:22.421Z,23.93
2023-03-02T07:09:50.592Z,23.91
2023-03-02T07:12:17.610Z,23.90
2023-03-02T07:14:44.475Z,23.85
2023-03-02T07:17:11.365Z,23.80
2023-03-02T07:19:40.755Z,23.78
2023-03-02T07:22:07.833Z,23.73
2023-03-02T07:24:34.950Z,23.70
2023-03-02T07:27:03.702Z,23.68
2023-03-02T07:29:30.566Z,23.65
2023-03-02T07:32:00.037Z,23.62
2023-03-02T07:34:27.637Z,23.58
2023-03-02T07:36:54.425Z,23.58
2023-03-02T07:39:21.333Z,23.54
2023-03-02T07:41:48.145Z,23.51
2023-03-02T07:44:16.393Z,23.49
2023-03-02T07:46:43.278Z,23.48
2023-03-02T07:49:10.224Z,23.47
2023-03-02T07:51:37.052Z,23.42
2023-03-02T07:54:05.051Z,23.38
2023-03-02T07:56:32.099Z,23.34
2023-03-02T07:58:58.945Z,23.31
2023-03-02T08:01:27.283Z,23.28
2023-03-02T08:03:54.117Z,23.26
2023-03-02T08:06:21.182Z,23.23
2023-03-02T08:08:48.202Z,23.19
2023-03-02T08:11:16.871Z,23.15
2023-03-02T08:13:44.700Z,23.12
2023-03-02T08:16:13.813Z,23.08
2023-03-02T08:18:42.832Z,23.05
2023-03-02T08:21:14.497Z,23.01
2023-03-02T08:23:41.641Z,23.00
2023-03-02T08:26:08.771Z,22.98
2023-03-02T08:28:36.378Z,22.95
2023-03-02T08:31:06.567Z,22.91
2023-03-02T08:33:33.529Z,22.89
2023-03-02T08:36:03.325Z,22.87
2023-03-02T08:38:31.273Z,22.83
2023-03-02T08:40:58.180Z,22.83
2023-03-02T08:43:26.286Z,22.81
2023-03-02T08:45:54.465Z,22.81
2023-03-02T08:48:22.600Z,22.79
2023-03-02T08:50:59.938Z,22.76
2023-03-02T08:53:29.967Z,22.75
2023-03-02T08:55:56.859Z,22.73
2023-03-02T08:58:23.752Z,22.71
2023-03-02T09:00:50.944Z,22.70
2023-03-02T09:03:17.850Z,22.69
2023-03-02T09:05:44.735Z,22.69
2023-03-02T09:08:11.907Z,22.68
2023-03-02T09:10:40.368Z,22.67
2023-03-02T09:13:08.571Z,22.65
2023-03-02T09:15:35.619Z,22.64
2023-03-02T09:18:02.474Z,22.64
2023-03-02T09:20:29.470Z,22.66
2023-03-02T09:22:56.313Z,22.64
2023-03-02T09:25:23.225Z,22.63
2023-03-02T09:27:51.393Z,22.62
2023-03-02T09:30:18.422Z,22.61
2023-03-02T09:32:45.459Z,22.60
2023-03-02T09:35:12.461Z,22.58
2023-03-02T09:37:39.368Z,22.58
2023-03-02T09:40:16.362Z,22.57
2023-03-02T09:42:58.813Z,22.54
2023-03-02T09:45:37.456Z,22.52
2023-03-02T09:48:13.184Z,22.52
2023-03-02T09:50:47.110Z,22.51
2023-03-02T09:53:35.514Z,22.50
2023-03-02T09:56:03.059Z,22.49
2023-03-02T09:58:35.545Z,22.48
2023-03-02T10:01:09.182Z,22.46
2023-03-02T10:03:42.065Z,22.45
2023-03-02T10:06:09.594Z,22.44
2023-03-02T10:08:37.917Z,22.44
2023-03-02T10:11:13.421Z,22.43
2023-03-02T10:13:47.657Z,22.42
2023-03-02T10:16:23.378Z,22.41
2023-03-02T10:18:57.925Z,22.41
2023-03-02T10:21:29.687Z,22.39
2023-03-02T10:24:01.284Z,22.38
2023-03-02T10:26:31.990Z,22.37
2023-03-02T10:29:16.453Z,22.34
2023-03-02T10:31:46.080Z,22.34
2023-03-02T10:34:13.630Z,22.33
2023-03-02T10:36:44.033Z,22.33
2023-03-02T10:39:14.699Z,22.33
2023-03-02T10:41:47.285Z,22.33
2023-03-02T10:44:22.305Z,22.31
2023-03-02T10:46:49.234Z,22.30
2023-03-02T10:49:34.900Z,22.30
2023-03-02T10:52:04.536Z,22.30
2023-03-02T10:54:33.054Z,22.30
2023-03-02T10:57:02.225Z,22.28
2023-03-02T10:59:41.142Z,22.28
2023-03-02T11:02:22.426Z,22.28
2023-03-02T11:04:55.642Z,22.26
2023-03-02T11:07:26.237Z,22.25
2023-03-02T11:10:01.899Z,22.25
2023-03-02T11:12:29.891Z,22.24
2023-03-02T11:15:17.684Z,22.26
2023-03-02T11:17:48.127Z,22.25
2023-03-02T11:20:20.225Z,22.25
2023-03-02T11:22:54.199Z,22.24
2023-03-02T11:25:28.627Z,22.23
2023-03-02T11:28:02.064Z,22.23
2023-03-02T11:30:38.735Z,22.25
2023-03-02T11:33:12.115Z,22.24
2023-03-02T11:35:45.734Z,22.23
2023-03-02T11:38:19.428Z,22.21
2023-03-02T11:40:50.729Z,22.22
2023-03-02T11:43:17.760Z,22.22
2023-03-02T11:45:49.986Z,22.23
2023-03-02T11:48:22.738Z,22.21
2023-03-02T11:50:56.465Z,22.20
2023-03-02T11:53:27.251Z,22.20
2023-03-02T11:55:54.025Z,22.20
2023-03-02T11:58:23.541Z,22.20
2023-03-02T12:00:53.717Z,22.19
2023-03-02T12:03:23.255Z,22.18
2023-03-02T12:06:01.839Z,22.19
2023-03-02T12:08:36.292Z,22.19
2023-03-02T12:11:05.840Z,22.19
2023-03-02T12:13:34.728Z,22.18
2023-03-02T12:16:03.771Z,22.17
2023-03-02T12:18:45.693Z,22.13
2023-03-02T12:21:16.202Z,22.14
2023-03-02T12:24:00.475Z,22.15
2023-03-02T12:26:32.967Z,22.14
2023-03-02T12:29:03.933Z,22.13
2023-03-02T12:31:43.761Z,22.13
2023-03-02T12:34:26.146Z,22.14
2023-03-02T12:36:58.073Z,22.13
2023-03-02T12:39:40.206Z,22.16
2023-03-02T12:42:29.744Z,22.21
2023-03-02T12:45:04.639Z,22.42
2023-03-02T12:47:33.849Z,22.69
2023-03-02T12:50:04.345Z,22.97
2023-03-02T12:52:33.762Z,23.27
2023-03-02T12:55:03.199Z,23.56
2023-03-02T12:57:30.442Z,23.84
2023-03-02T12:59:59.668Z,24.14
2023-03-02T13:02:28.801Z,24.42
2023-03-02T13:04:58.505Z,24.54
2023-03-02T13:07:27.764Z,24.58
2023-03-02T13:09:57.370Z,24.63
2023-03-02T13:12:28.141Z,24.74
2023-03-02T13:14:57.408Z,24.91
2023-03-02T13:17:27.225Z,25.06
2023-03-02T13:19:54.186Z,25.27
2023-03-02T13:22:23.375Z,25.46
2023-03-02T13:24:55.448Z,25.64
2023-03-02T13:27:24.483Z,25.80
2023-03-02T13:29:55.992Z,25.93
2023-03-02T13:32:25.464Z,26.05
2023-03-02T13:34:54.609Z,26.19
2023-03-02T13:37:43.903Z,26.33
2023-03-02T13:40:30.777Z,26.47
2023-03-02T13:42:58.225Z,26.60
2023-03-02T13:45:26.882Z,26.70
2023-03-02T13:47:54.941Z,26.79
2023-03-02T13:50:24.555Z,26.88
2023-03-02T13:52:55.477Z,26.96
2023-03-02T13:55:23.011Z,27.03
2023-03-02T13:57:52.009Z,27.10
2023-03-02T14:00:22.235Z,27.16
2023-03-02T14:02:50.518Z,27.21
2023-03-02T14:05:20.528Z,27.14
2023-03-02T14:07:47.939Z,27.02
2023-03-02T14:10:17.918Z,26.96
2023-03-02T14:12:55.564Z,26.88
2023-03-02T14:15:22.980Z,26.81
2023-03-02T14:17:49.865Z,26.75
2023-03-02T14:20:19.585Z,26.69
2023-03-02T14:22:47.319Z,26.66
2023-03-02T14:25:16.440Z,26.62
2023-03-02T14:27:44.002Z,26.60
2023-03-02T14:30:15.944Z,26.59
2023-03-02T14:32:42.782Z,26.59
2023-03-02T14:35:12.094Z,26.61
2023-03-02T14:37:42.869Z,26.61
2023-03-02T14:40:24.061Z,26.60
2023-03-02T14:42:51.958Z,26.59
2023-03-02T14:45:19.040Z,26.59
2023-03-02T14:47:45.908Z,26.59
2023-03-02T14:50:12.830Z,26.57
2023-03-02T14:52:42.973Z,26.56
2023-03-02T14:55:15.921Z,26.57
2023-03-02T14:57:44.166Z,26.57
2023-03-02T15:00:15.275Z,26.56
2023-03-02T15:02:42.510Z,26.56
2023-03-02T15:05:10.056Z,26.55
2023-03-02T15:07:38.936Z,26.56
2023-03-02T15:10:07.230Z,26.57
2023-03-02T15:12:34.460Z,26.61
2023-03-02T15:15:02.794Z,26.63
2023-03-02T15:17:29.612Z,26.63
2023-03-02T15:19:56.402Z,26.62
2023-03-02T15:22:23.247Z,26.62
2023-03-02T15:24:50.025Z,26.65
2023-03-02T15:27:17.211Z,26.64
2023-03-02T15:29:44.957Z,26.64
2023-03-02T15:32:13.680Z,26.63
2023-03-02T15:34:41.076Z,26.64
2023-03-02T15:37:09.472Z,26.67
2023-03-02T15:39:36.319Z,26.67
2023-03-02T15:42:03.301Z,26.67
2023-03-02T15:44:30.534Z,26.67
2023-03-02T15:46:59.507Z,26.66
2023-03-02T15:49:29.483Z,26.67
2023-03-02T15:51:59.710Z,26.68
2023-03-02T15:54:27.705Z,26.68
2023-03-02T15:56:54.681Z,26.70
2023-03-02T15:59:23.348Z,26.70
2023-03-02T16:01:50.383Z,26.68
2023-03-02T16:04:17.519Z,26.67
2023-03-02T16:06:45.865Z,26.70
2023-03-02T16:09:12.838Z,26.71
2023-03-02T16:11:39.875Z,26.71
2023-03-02T16:14:06.923Z,26.73
2023-03-02T16:16:33.753Z,26.73
2023-03-02T16:19:01.219Z,26.68
2023-03-02T16:21:29.095Z,26.67
2023-03-02T16:24:03.838Z,26.64
2023-03-02T16:26:32.233Z,26.62
2023-03-02T16:28:59.270Z,26.60
2023-03-02T16:31:28.089Z,26.60
2023-03-02T16:33:56.128Z,26.58
2023-03-02T16:36:23.024Z,26.57
2023-03-02T16:38:49.953Z,26.54
2023-03-02T16:41:20.338Z,26.52
2023-03-02T16:43:49.605Z,26.52
2023-03-02T16:46:17.388Z,26.51
2023-03-02T16:48:44.963Z,26.50
2023-03-02T16:51:12.074Z,26.50
2023-03-02T16:53:40.723Z,26.49
2023-03-02T16:56:08.141Z,26.47
2023-03-02T16:58:38.352Z,26.47
2023-03-02T17:01:05.986Z,26.46
2023-03-02T17:03:33.188Z,26.46
2023-03-02T17:06:00.118Z,26.49
2023-03-02T17:08:27.482Z,26.48
2023-03-02T17:10:54.380Z,26.48
2023-03-02T17:13:21.287Z,26.49
2023-03-02T17:15:49.690Z,26.53
2023-03-02T17:18:17.222Z,26.56
2023-03-02T17:20:44.388Z,26.59
2023-03-02T17:23:14.248Z,26.61
2023-03-02T17:25:41.127Z,26.64
2023-03-02T17:28:08.005Z,26.67
2023-03-02T17:30:34.866Z,26.69
2023-03-02T17:33:03.093Z,26.69
2023-03-02T17:35:30.088Z,26.72
2023-03-02T17:37:56.946Z,26.75
2023-03-02T17:40:23.974Z,26.80
2023-03-02T17:42:53.221Z,26.83
2023-03-02T17:45:24.998Z,26.87
2023-03-02T17:47:53.300Z,26.85
2023-03-02T17:50:22.519Z,26.85
2023-03-02T17:52:49.421Z,26.86
2023-03-02T17:55:17.141Z,26.87
2023-03-02T17:57:44.171Z,26.86
2023-03-02T18:00:14.113Z,26.82
2023-03-02T18:02:41.002Z,26.80
2023-03-02T18:05:10.167Z,26.77
2023-03-02T18:07:38.605Z,26.73
2023-03-02T18:10:07.056Z,26.70
2023-03-02T18:12:34.320Z,26.69
2023-03-02T18:15:01.136Z,26.68
2023-03-02T18:17:28.381Z,26.68
2023-03-02T18:19:55.214Z,26.66
2023-03-02T18:22:22.176Z,26.64
2023-03-02T18:24:51.954Z,26.65
2023-03-02T18:27:19.186Z,26.63
2023-03-02T18:29:46.106Z,26.64
2023-03-02T18:32:13.189Z,26.61
2023-03-02T18:34:40.308Z,26.62
2023-03-02T18:37:07.290Z,26.64
2023-03-02T18:39:34.184Z,26.66
2023-03-02T18:42:02.336Z,26.68
2023-03-02T18:44:31.218Z,26.70
2023-03-02T18:46:58.778Z,26.71
2023-03-02T18:49:25.910Z,26.75
2023-03-02T18:51:55.057Z,26.77
2023-03-02T18:54:21.857Z,26.81
2023-03-02T18:56:48.988Z,26.82
2023-03-02T18:59:17.927Z,26.83
2023-03-02T19:01:46.277Z,26.85
2023-03-02T19:04:14.282Z,26.88
2023-03-02T19:06:41.959Z,26.88
2023-03-02T19:09:09.317Z,26.88
2023-03-02T19:11:36.263Z,26.93
2023-03-02T19:14:03.295Z,26.94
2023-03-02T19:16:31.937Z,26.93
2023-03-02T19:18:58.834Z,26.95
2023-03-02T19:21:25.724Z,26.97
2023-03-02T19:23:52.703Z,26.97
2023-03-02T19:26:19.608Z,26.98
2023-03-02T19:28:46.500Z,26.98
2023-03-02T19:31:13.808Z,26.96
2023-03-02T19:33:42.528Z,26.95
2023-03-02T19:36:09.967Z,26.94
2023-03-02T19:38:40.607Z,26.93
2023-03-02T19:41:09.292Z,26.92
2023-03-02T19:43:36.722Z,26.92
2023-03-02T19:46:04.860Z,26.88
2023-03-02T19:48:32.108Z,26.89
2023-03-02T19:51:00.599Z,26.89
2023-03-02T19:53:27.452Z,26.87
2023-03-02T19:55:59.803Z,26.89
2023-03-02T19:58:28.297Z,26.89
2023-03-02T20:00:55.297Z,26.89
2023-03-02T20:03:22.133Z,26.89
2023-03-02T20:05:49.452Z,26.89
2023-03-02T20:08:17.836Z,26.88
2023-03-02T20:10:46.648Z,26.86
2023-03-02T20:13:13.565Z,26.82
2023-03-02T20:15:42.794Z,26.79
2023-03-02T20:18:12.942Z,26.76
2023-03-02T20:20:40.487Z,26.72
2023-03-02T20:23:07.385Z,26.71
2023-03-02T20:25:36.474Z,26.68
2023-03-02T20:28:05.604Z,26.66
2023-03-02T20:30:36.418Z,26.66
2023-03-02T20:33:04.677Z,26.63
2023-03-02T20:35:35.162Z,26.60
2023-03-02T20:38:05.392Z,26.57
2023-03-02T20:40:33.256Z,26.54
2023-03-02T20:43:01.913Z,26.50
2023-03-02T20:45:28.888Z,26.45
2023-03-02T20:47:55.747Z,26.40
2023-03-02T20:50:29.352Z,26.33
2023-03-02T20:52:56.564Z,26.27
2023-03-02T20:55:23.505Z,26.23
2023-03-02T20:57:50.334Z,26.15
2023-03-02T21:00:22.023Z,26.10
2023-03-02T21:02:49.524Z,26.02
2023-03-02T21:05:17.108Z,25.97
2023-03-02T21:07:44.376Z,25.91
2023-03-02T21:10:14.731Z,25.87
2023-03-02T21:12:43.076Z,25.81
2023-03-02T21:15:10.807Z,25.74
2023-03-02T21:17:39.047Z,25.70
2023-03-02T21:20:07.356Z,25.66
2023-03-02T21:22:34.471Z,25.60
2023-03-02T21:25:01.413Z,25.55
2023-03-02T21:27:28.963Z,25.49
2023-03-02T21:29:55.783Z,25.47
2023-03-02T21:32:22.689Z,25.42
2023-03-02T21:34:50.876Z,25.39
2023-03-02T21:37:17.701Z,25.36
2023-03-02T21:39:44.604Z,25.33
2023-03-02T21:42:11.966Z,25.29
2023-03-02T21:44:38.806Z,25.26
2023-03-02T21:47:05.800Z,25.23
2023-03-02T21:49:32.686Z,25.19
2023-03-02T21:52:00.935Z,25.16
2023-03-02T21:54:27.886Z,25.13
2023-03-02T21:56:54.681Z,25.09
2023-03-02T21:59:21.530Z,25.07
2023-03-02T22:01:48.441Z,25.04
2023-03-02T22:04:15.328Z,25.01
2023-03-02T22:06:42.227Z,24.99
2023-03-02T22:09:11.475Z,24.96
2023-03-02T22:11:38.557Z,24.94
2023-03-02T22:14:12.216Z,24.92
2023-03-02T22:16:40.575Z,24.90
2023-03-02T22:19:22.308Z,24.89
2023-03-02T22:21:49.805Z,24.85
2023-03-02T22:24:22.144Z,24.83
2023-03-02T22:26:57.149Z,24.78
2023-03-02T22:29:26.078Z,24.76
2023-03-02T22:31:55.054Z,24.73
2023-03-02T22:34:24.764Z,24.69
2023-03-02T22:36:55.319Z,24.67
2023-03-02T22:39:28.309Z,24.66
2023-03-02T22:42:00.814Z,24.61
2023-03-02T22:44:27.822Z,24.58
2023-03-02T22:46:55.901Z,24.56
2023-03-02T22:49:22.771Z,24.54
2023-03-02T22:51:49.782Z,24.51
2023-03-02T22:54:24.242Z,24.47
2023-03-02T22:56:53.047Z,24.43
2023-03-02T22:59:22.700Z,24.41
2023-03-02T23:01:49.693Z,24.38
2023-03-02T23:04:20.192Z,24.36
2023-03-02T23:06:48.863Z,24.34
2023-03-02T23:09:18.282Z,24.33
2023-03-02T23:11:47.495Z,24.29
2023-03-02T23:14:22.452Z,24.26
2023-03-02T23:16:53.449Z,24.24
2023-03-02T23:19:20.621Z,24.21
2023-03-02T23:21:49.350Z,24.18
2023-03-02T23:24:18.937Z,24.15
2023-03-02T23:26:47.456Z,24.13
2023-03-02T23:29:14.362Z,24.09
2023-03-02T23:31:41.253Z,24.09
2023-03-02T23:34:08.181Z,24.06
2023-03-02T23:36:35.009Z,24.04
2023-03-02T23:39:01.921Z,24.02
2023-03-02T23:41:28.827Z,24.00
2023-03-02T23:43:58.224Z,23.99
2023-03-02T23:46:25.751Z,23.98
2023-03-02T23:48:52.688Z,23.97
2023-03-02T23:51:19.794Z,23.96
2023-03-02T23:53:46.910Z,23.94
2023-03-02T23:56:13.825Z,23.91
2023-03-02T23:58:40.738Z,23.90
